createdAt,value
2022-11-05T00:00:48.597Z,100.00
2022-11-05T00:03:35.818Z,100.00
2022-11-05T00:06:17.550Z,100.00
2022-11-05T00:09:02.869Z,100.00
2022-11-05T00:11:44.676Z,100.00
2022-11-05T00:14:33.543Z,100.00
2022-11-05T00:17:01.279Z,100.00
2022-11-05T00:19:31.090Z,100.00
2022-11-05T00:22:16.453Z,100.00
2022-11-05T00:25:01.801Z,100.00
2022-11-05T00:27:30.257Z,100.00
2022-11-05T00:29:59.583Z,100.00
2022-11-05T00:32:27.353Z,100.00
2022-11-05T00:34:56.127Z,100.00
2022-11-05T00:37:25.175Z,100.00
2022-11-05T00:39:52.811Z,100.00
2022-11-05T00:42:39.093Z,100.00
2022-11-05T00:45:12.761Z,100.00
2022-11-05T00:47:59.709Z,100.00
2022-11-05T00:50:29.754Z,100.00
2022-11-05T00:53:00.481Z,100.00
2022-11-05T00:55:33.765Z,100.00
2022-11-05T00:58:02.594Z,100.00
2022-11-05T01:00:33.483Z,100.00
2022-11-05T01:03:03.920Z,100.00
2022-11-05T01:05:32.795Z,100.00
2022-11-05T01:08:02.745Z,100.00
2022-11-05T01:10:31.451Z,100.00
2022-11-05T01:12:59.597Z,100.00
2022-11-05T01:15:27.823Z,100.00
2022-11-05T01:17:56.709Z,100.00
2022-11-05T01:20:25.773Z,100.00
2022-11-05T01:22:53.324Z,100.00
2022-11-05T01:25:22.765Z,100.00
2022-11-05T01:27:51.266Z,100.00
2022-11-05T01:33:12.650Z,100.00
2022-11-05T01:35:41.879Z,100.00
2022-11-05T01:38:34.839Z,100.00
2022-11-05T01:41:03.769Z,100.00
2022-11-05T01:43:47.916Z,100.00
2022-11-05T01:46:18.834Z,100.00
2022-11-05T01:49:16.515Z,100.00
2022-11-05T01:51:46.690Z,100.00
2022-11-05T01:54:19.648Z,100.00
2022-11-05T01:56:52.270Z,100.00
2022-11-05T01:59:24.791Z,100.00
2022-11-05T02:01:52.977Z,100.00
2022-11-05T02:04:28.770Z,100.00
2022-11-05T02:06:56.877Z,100.00
2022-11-05T02:09:30.157Z,100.00
2022-11-05T02:11:58.314Z,100.00
2022-11-05T02:14:29.250Z,100.00
2022-11-05T02:17:02.290Z,100.00
2022-11-05T02:20:10.437Z,100.00
2022-11-05T02:23:18.200Z,100.00
2022-11-05T02:26:35.383Z,100.00
2022-11-05T02:29:46.596Z,100.00
2022-11-05T02:32:26.293Z,100.00
2022-11-05T02:35:02.615Z,100.00
2022-11-05T02:37:40.780Z,100.00
2022-11-05T02:40:22.741Z,100.00
2022-11-05T02:43:02.195Z,100.00
2022-11-05T02:45:41.791Z,100.00
2022-11-05T02:48:22.287Z,100.00
2022-11-05T02:50:56.779Z,100.00
2022-11-05T02:53:35.157Z,100.00
2022-11-05T02:56:08.421Z,100.00
2022-11-05T02:58:39.847Z,100.00
2022-11-05T03:01:11.743Z,100.00
2022-11-05T03:03:43.789Z,100.00
2022-11-05T03:06:28.827Z,100.00
2022-11-05T03:09:11.864Z,100.00
2022-11-05T03:11:46.977Z,100.00
2022-11-05T03:14:23.756Z,100.00
2022-11-05T03:17:08.500Z,100.00
2022-11-05T03:19:44.009Z,100.00
2022-11-05T03:22:41.643Z,100.00
2022-11-05T03:25:12.750Z,100.00
2022-11-05T03:27:47.196Z,100.00
2022-11-05T03:30:16.960Z,100.00
2022-11-05T03:32:49.377Z,100.00
2022-11-05T03:35:23.933Z,100.00
2022-11-05T03:38:00.755Z,100.00
2022-11-05T03:40:33.804Z,100.00
2022-11-05T03:43:05.557Z,100.00
2022-11-05T03:45:39.894Z,100.00
2022-11-05T03:48:11.728Z,100.00
2022-11-05T03:50:45.875Z,100.00
2022-11-05T03:53:17.924Z,100.00
2022-11-05T03:55:52.467Z,100.00
2022-11-05T03:58:23.812Z,100.00
2022-11-05T04:00:55.614Z,100.00
2022-11-05T04:03:23.823Z,100.00
2022-11-05T04:06:35.879Z,100.00
2022-11-05T04:09:22.572Z,100.00
2022-11-05T04:12:07.800Z,100.00
2022-11-05T04:14:36.801Z,100.00
2022-11-05T04:17:09.886Z,100.00
2022-11-05T04:20:00.356Z,100.00
2022-11-05T04:22:49.295Z,100.00
2022-11-05T04:25:18.831Z,100.00
2022-11-05T04:27:51.954Z,100.00
2022-11-05T04:30:19.921Z,100.00
2022-11-05T04:32:58.855Z,100.00
2022-11-05T04:35:27.826Z,100.00
2022-11-05T04:37:56.831Z,100.00
2022-11-05T04:40:26.741Z,100.00
2022-11-05T04:42:56.024Z,100.00
2022-11-05T04:45:24.387Z,100.00
2022-11-05T04:47:52.253Z,100.00
2022-11-05T04:50:20.837Z,100.00
2022-11-05T04:52:49.353Z,100.00
2022-11-05T04:55:18.828Z,100.00
2022-11-05T04:57:49.377Z,100.00
2022-11-05T05:00:18.814Z,100.00
2022-11-05T05:02:47.058Z,100.00
2022-11-05T05:05:15.391Z,100.00
2022-11-05T05:07:43.342Z,100.00
2022-11-05T05:10:12.128Z,100.00
2022-11-05T05:12:42.748Z,100.00
2022-11-05T05:15:10.294Z,100.00
2022-11-05T05:17:37.898Z,100.00
2022-11-05T05:20:23.373Z,100.00
2022-11-05T05:22:54.808Z,100.00
2022-11-05T05:25:23.767Z,100.00
2022-11-05T05:27:53.936Z,100.00
2022-11-05T05:30:25.958Z,100.00
2022-11-05T05:32:56.794Z,100.00
2022-11-05T05:35:24.466Z,100.00
2022-11-05T05:37:56.610Z,100.00
2022-11-05T05:40:28.199Z,100.00
2022-11-05T05:42:57.170Z,100.00
2022-11-05T05:45:24.737Z,100.00
2022-11-05T05:47:55.820Z,100.00
2022-11-05T05:50:23.505Z,100.00
2022-11-05T05:52:52.929Z,100.00
2022-11-05T05:55:24.805Z,100.00
2022-11-05T05:57:53.832Z,100.00
2022-11-05T06:00:23.686Z,100.00
2022-11-05T06:02:51.315Z,100.00
2022-11-05T06:05:18.880Z,100.00
2022-11-05T06:07:46.494Z,100.00
2022-11-05T06:13:05.824Z,100.00
2022-11-05T06:15:36.207Z,100.00
2022-11-05T06:18:05.306Z,100.00
2022-11-05T06:20:33.737Z,100.00
2022-11-05T06:23:01.271Z,100.00
2022-11-05T06:25:30.873Z,100.00
2022-11-05T06:27:58.899Z,100.00
2022-11-05T06:30:26.758Z,100.00
2022-11-05T06:32:55.642Z,100.00
2022-11-05T06:35:28.764Z,100.00
2022-11-05T06:38:22.072Z,100.00
2022-11-05T06:40:49.686Z,100.00
2022-11-05T06:43:17.262Z,100.00
2022-11-05T06:45:45.130Z,100.00
2022-11-05T06:48:15.551Z,100.00
2022-11-05T06:50:45.959Z,100.00
2022-11-05T06:53:14.187Z,100.00
2022-11-05T06:55:41.784Z,100.00
2022-11-05T06:58:09.376Z,100.00
2022-11-05T07:00:37.892Z,100.00
2022-11-05T07:03:06.528Z,100.00
2022-11-05T07:05:38.119Z,100.00
2022-11-05T07:08:07.748Z,100.00
2022-11-05T07:10:35.464Z,100.00
2022-11-05T07:13:08.055Z,100.00
2022-11-05T07:15:36.789Z,100.00
2022-11-05T07:18:07.074Z,100.00
2022-11-05T07:20:37.627Z,100.00
2022-11-05T07:23:09.335Z,100.00
2022-11-05T07:25:37.735Z,100.00
2022-11-05T07:28:06.922Z,100.00
2022-11-05T07:30:36.069Z,100.00
2022-11-05T07:33:06.409Z,100.00
2022-11-05T07:35:34.037Z,100.00
2022-11-05T07:38:02.996Z,100.00
2022-11-05T07:40:31.088Z,100.00
2022-11-05T07:43:00.403Z,100.00
2022-11-05T07:45:30.037Z,100.00
2022-11-05T07:48:00.280Z,100.00
2022-11-05T07:50:33.737Z,100.00
2022-11-05T07:53:06.759Z,100.00
2022-11-05T07:55:35.390Z,100.00
2022-11-05T07:58:03.384Z,100.00
2022-11-05T08:00:32.042Z,100.00
2022-11-05T08:03:09.355Z,100.00
2022-11-05T08:05:41.786Z,100.00
2022-11-05T08:08:12.741Z,100.00
2022-11-05T08:10:41.848Z,100.00
2022-11-05T08:13:10.851Z,100.00
2022-11-05T08:15:39.395Z,100.00
2022-11-05T08:18:08.971Z,100.00
2022-11-05T08:20:37.030Z,100.00
2022-11-05T08:23:04.820Z,100.00
2022-11-05T08:25:37.891Z,100.00
2022-11-05T08:28:08.753Z,100.00
2022-11-05T08:30:36.414Z,100.00
2022-11-05T08:33:06.914Z,100.00
2022-11-05T08:35:35.799Z,100.00
2022-11-05T08:38:05.859Z,100.00
2022-11-05T08:40:36.260Z,100.00
2022-11-05T08:43:29.168Z,100.00
2022-11-05T08:45:57.757Z,100.00
2022-11-05T08:48:26.256Z,100.00
2022-11-05T08:50:56.785Z,100.00
2022-11-05T08:53:25.136Z,100.00
2022-11-05T08:55:58.240Z,100.00
2022-11-05T08:58:25.859Z,100.00
2022-11-05T09:00:53.817Z,100.00
2022-11-05T09:03:21.709Z,100.00
2022-11-05T09:05:49.282Z,100.00
2022-11-05T09:08:20.769Z,100.00
2022-11-05T09:10:50.140Z,100.00
2022-11-05T09:13:20.388Z,100.00
2022-11-05T09:15:48.962Z,100.00
2022-11-05T09:18:18.612Z,100.00
2022-11-05T09:20:47.044Z,100.00
2022-11-05T09:23:15.673Z,100.00
2022-11-05T09:25:45.609Z,100.00
2022-11-05T09:28:17.018Z,100.00
2022-11-05T09:30:47.953Z,100.00
2022-11-05T09:33:17.825Z,100.00
2022-11-05T09:35:45.576Z,100.00
2022-11-05T09:38:13.624Z,100.00
2022-11-05T09:40:45.974Z,100.00
2022-11-05T09:43:19.675Z,100.00
2022-11-05T09:45:53.379Z,100.00
2022-11-05T09:48:25.451Z,100.00
2022-11-05T09:50:54.597Z,100.00
2022-11-05T09:53:24.319Z,100.00
2022-11-05T09:58:52.759Z,100.00
2022-11-05T10:01:26.954Z,100.00
2022-11-05T10:03:58.315Z,100.00
2022-11-05T10:06:29.920Z,100.00
2022-11-05T10:09:03.757Z,100.00
2022-11-05T10:11:38.315Z,100.00
2022-11-05T10:14:17.351Z,100.00
2022-11-05T10:16:52.548Z,100.00
2022-11-05T10:19:24.888Z,100.00
2022-11-05T10:22:11.229Z,100.00
2022-11-05T10:24:41.844Z,100.00
2022-11-05T10:27:15.488Z,100.00
2022-11-05T10:29:46.233Z,100.00
2022-11-05T10:32:22.435Z,100.00
2022-11-05T10:34:51.333Z,100.00
2022-11-05T10:37:20.758Z,100.00
2022-11-05T10:39:49.571Z,100.00
2022-11-05T10:42:34.913Z,100.00
2022-11-05T10:45:14.564Z,100.00
2022-11-05T10:47:59.190Z,100.00
2022-11-05T10:50:29.355Z,100.00
2022-11-05T10:53:00.020Z,100.00
2022-11-05T10:55:30.863Z,100.00
2022-11-05T10:58:09.976Z,100.00
2022-11-05T11:00:38.653Z,100.00
2022-11-05T11:03:39.994Z,100.00
2022-11-05T11:06:20.915Z,100.00
2022-11-05T11:08:51.225Z,100.00
2022-11-05T11:11:31.390Z,100.00
2022-11-05T11:14:08.865Z,100.00
2022-11-05T11:16:38.837Z,100.00
2022-11-05T11:19:27.856Z,100.00
2022-11-05T11:22:17.663Z,100.00
2022-11-05T11:24:48.001Z,100.00
2022-11-05T11:27:23.094Z,99.75
2022-11-05T11:29:56.961Z,98.72
2022-11-05T11:32:32.844Z,96.93
2022-11-05T11:35:02.312Z,96.25
2022-11-05T11:37:34.847Z,96.01
2022-11-05T11:40:10.111Z,96.11
2022-11-05T11:42:41.767Z,96.15
2022-11-05T11:45:42.474Z,95.39
2022-11-05T11:48:17.791Z,94.23
2022-11-05T11:50:49.486Z,93.52
2022-11-05T11:53:26.805Z,94.20
2022-11-05T11:56:07.067Z,93.88
2022-11-05T11:58:41.634Z,93.04
2022-11-05T12:01:38.430Z,93.03
2022-11-05T12:04:21.047Z,92.02
2022-11-05T12:06:59.122Z,91.81
2022-11-05T12:09:41.853Z,91.14
2022-11-05T12:12:13.757Z,91.33
2022-11-05T12:14:50.781Z,90.77
2022-11-05T12:17:36.469Z,91.16
2022-11-05T12:20:17.790Z,91.00
2022-11-05T12:23:08.474Z,90.28
2022-11-05T12:25:46.432Z,89.81
2022-11-05T12:28:30.386Z,89.34
2022-11-05T12:31:08.307Z,88.97
2022-11-05T12:33:46.826Z,88.34
2022-11-05T12:36:30.794Z,88.88
2022-11-05T12:39:37.378Z,88.67
2022-11-05T12:42:12.213Z,87.79
2022-11-05T12:45:06.810Z,87.66
2022-11-05T12:47:49.830Z,87.68
2022-11-05T12:50:25.771Z,87.35
2022-11-05T12:53:20.101Z,86.93
2022-11-05T12:55:51.389Z,85.99
2022-11-05T12:58:24.482Z,85.17
2022-11-05T13:00:56.718Z,84.87
2022-11-05T13:03:37.862Z,84.86
2022-11-05T13:06:11.165Z,83.51
2022-11-05T13:08:44.599Z,83.71
2022-11-05T13:11:24.579Z,84.10
2022-11-05T13:14:05.091Z,84.45
2022-11-05T13:16:37.784Z,84.73
2022-11-05T13:19:16.354Z,83.97
2022-11-05T13:21:46.449Z,82.94
2022-11-05T13:24:19.388Z,83.05
2022-11-05T13:26:53.744Z,83.29
2022-11-05T13:29:26.348Z,83.31
2022-11-05T13:31:59.920Z,83.66
2022-11-05T13:34:55.979Z,84.04
2022-11-05T13:37:47.447Z,83.63
2022-11-05T13:40:19.826Z,83.57
2022-11-05T13:43:04.795Z,83.83
2022-11-05T13:45:50.063Z,83.48
2022-11-05T13:48:45.328Z,83.42
2022-11-05T13:51:31.495Z,83.36
2022-11-05T13:54:28.856Z,83.64
2022-11-05T13:57:12.075Z,83.97
2022-11-05T14:00:00.081Z,83.61
2022-11-05T14:02:32.497Z,83.53
2022-11-05T14:05:02.306Z,83.09
2022-11-05T14:07:31.978Z,83.25
2022-11-05T14:10:02.644Z,83.59
2022-11-05T14:12:35.831Z,84.09
2022-11-05T14:15:10.242Z,83.09
2022-11-05T14:17:56.389Z,82.34
2022-11-05T14:20:40.110Z,82.24
2022-11-05T14:23:47.998Z,81.99
2022-11-05T14:26:22.782Z,80.96
2022-11-05T14:28:52.789Z,81.08
2022-11-05T14:32:02.340Z,81.27
2022-11-05T14:34:42.798Z,81.60
2022-11-05T14:37:29.796Z,81.70
2022-11-05T14:40:01.315Z,81.63
2022-11-05T14:42:30.385Z,81.37
2022-11-05T14:45:05.500Z,81.40
2022-11-05T14:47:36.848Z,81.49
2022-11-05T14:50:11.494Z,81.33
2022-11-05T14:52:41.832Z,81.52
2022-11-05T14:55:26.802Z,81.56
2022-11-05T14:58:07.835Z,82.15
2022-11-05T15:00:46.415Z,81.45
2022-11-05T15:03:34.117Z,82.16
2022-11-05T15:06:20.954Z,82.37
2022-11-05T15:09:25.169Z,82.92
2022-11-05T15:12:02.726Z,82.72
2022-11-05T15:14:34.783Z,83.09
2022-11-05T15:17:13.821Z,83.19
2022-11-05T15:19:44.154Z,83.75
2022-11-05T15:22:25.836Z,83.64
2022-11-05T15:24:53.660Z,83.64
2022-11-05T15:27:40.967Z,83.89
2022-11-05T15:30:16.430Z,84.05
2022-11-05T15:32:44.096Z,84.21
2022-11-05T15:35:26.894Z,84.45
2022-11-05T15:38:02.180Z,85.17
2022-11-05T15:40:32.697Z,85.10
2022-11-05T15:43:16.304Z,85.43
2022-11-05T15:45:44.076Z,85.57
2022-11-05T15:48:16.204Z,85.78
2022-11-05T15:50:45.405Z,85.84
2022-11-05T15:53:44.209Z,86.11
2022-11-05T15:56:11.774Z,86.49
2022-11-05T15:58:49.824Z,86.83
2022-11-05T16:01:22.150Z,86.94
2022-11-05T16:03:50.879Z,87.25
2022-11-05T16:06:21.077Z,87.25
2022-11-05T16:08:50.418Z,87.24
2022-11-05T16:11:22.604Z,87.59
2022-11-05T16:13:51.660Z,87.97
2022-11-05T16:16:34.904Z,88.20
2022-11-05T16:19:02.600Z,88.29
2022-11-05T16:21:31.478Z,88.53
2022-11-05T16:24:00.899Z,88.62
2022-11-05T16:27:02.254Z,88.90
2022-11-05T16:29:27.805Z,88.93
2022-11-05T16:31:57.516Z,89.41
2022-11-05T16:34:28.317Z,89.64
2022-11-05T16:36:59.952Z,90.12
2022-11-05T16:39:28.808Z,90.40
2022-11-05T16:41:57.285Z,90.24
2022-11-05T16:44:25.348Z,90.54
2022-11-05T16:46:53.752Z,90.55
2022-11-05T16:49:24.305Z,90.79
2022-11-05T16:51:51.901Z,90.62
2022-11-05T16:54:20.874Z,90.90
2022-11-05T16:56:48.474Z,91.03
2022-11-05T16:59:16.134Z,91.21
2022-11-05T17:01:44.929Z,91.09
2022-11-05T17:04:14.146Z,91.16
2022-11-05T17:06:43.831Z,91.43
2022-11-05T17:09:11.419Z,91.68
2022-11-05T17:11:41.063Z,91.71
2022-11-05T17:14:10.491Z,92.04
2022-11-05T17:16:38.561Z,92.08
2022-11-05T17:19:08.111Z,91.89
2022-11-05T17:21:36.567Z,92.35
2022-11-05T17:24:04.313Z,92.11
2022-11-05T17:26:31.905Z,92.54
2022-11-05T17:29:01.117Z,92.42
2022-11-05T17:31:28.766Z,92.45
2022-11-05T17:33:58.754Z,92.40
2022-11-05T17:36:28.807Z,92.63
2022-11-05T17:38:56.882Z,92.84
2022-11-05T17:41:25.018Z,92.99
2022-11-05T17:43:55.204Z,93.15
2022-11-05T17:46:25.712Z,93.01
2022-11-05T17:48:54.193Z,93.28
2022-11-05T17:51:22.457Z,93.65
2022-11-05T17:53:50.777Z,93.81
2022-11-05T17:56:32.594Z,93.92
2022-11-05T17:59:02.901Z,94.11
2022-11-05T18:01:35.508Z,94.49
2022-11-05T18:04:08.637Z,94.64
2022-11-05T18:06:36.890Z,94.92
2022-11-05T18:09:05.027Z,94.78
2022-11-05T18:11:32.548Z,95.22
2022-11-05T18:14:00.838Z,95.34
2022-11-05T18:16:28.806Z,95.43
2022-11-05T18:18:57.911Z,95.25
2022-11-05T18:21:25.522Z,95.28
2022-11-05T18:23:53.288Z,95.54
2022-11-05T18:26:22.340Z,95.50
2022-11-05T18:28:49.925Z,95.62
2022-11-05T18:31:20.425Z,95.66
2022-11-05T18:33:48.915Z,95.25
2022-11-05T18:36:20.050Z,95.12
2022-11-05T18:38:48.790Z,95.07
2022-11-05T18:41:17.441Z,95.30
2022-11-05T18:43:45.296Z,95.19
2022-11-05T18:46:35.752Z,94.80
2022-11-05T18:49:00.883Z,94.91
2022-11-05T18:51:29.833Z,94.62
2022-11-05T18:53:57.491Z,94.91
2022-11-05T18:56:25.961Z,94.87
2022-11-05T18:59:14.672Z,94.87
2022-11-05T19:01:42.439Z,94.50
2022-11-05T19:04:10.733Z,94.47
2022-11-05T19:06:40.472Z,94.16
2022-11-05T19:09:09.909Z,93.94
2022-11-05T19:11:37.540Z,94.06
2022-11-05T19:14:05.061Z,93.82
2022-11-05T19:16:33.673Z,93.72
2022-11-05T19:19:02.697Z,93.44
2022-11-05T19:21:31.316Z,93.55
2022-11-05T19:24:03.724Z,93.32
2022-11-05T19:26:35.862Z,93.36
2022-11-05T19:29:04.711Z,93.40
2022-11-05T19:31:32.843Z,92.99
2022-11-05T19:34:01.276Z,93.02
2022-11-05T19:36:28.880Z,92.97
2022-11-05T19:39:01.817Z,92.59
2022-11-05T19:41:31.115Z,92.57
2022-11-05T19:43:59.481Z,92.68
2022-11-05T19:46:28.343Z,92.29
2022-11-05T19:48:55.888Z,92.07
2022-11-05T19:51:25.260Z,91.78
2022-11-05T19:53:54.821Z,91.70
2022-11-05T19:56:24.481Z,91.90
2022-11-05T19:58:54.408Z,91.85
2022-11-05T20:01:24.118Z,91.65
2022-11-05T20:03:53.255Z,91.22
2022-11-05T20:06:22.434Z,91.35
2022-11-05T20:09:19.925Z,91.37
2022-11-05T20:11:39.789Z,91.09
2022-11-05T20:14:10.836Z,90.83
2022-11-05T20:16:40.132Z,90.79
2022-11-05T20:19:10.960Z,90.73
2022-11-05T20:21:39.938Z,91.11
2022-11-05T20:24:08.180Z,90.90
2022-11-05T20:26:36.896Z,90.82
2022-11-05T20:29:05.417Z,90.77
2022-11-05T20:31:34.739Z,90.39
2022-11-05T20:34:02.338Z,90.86
2022-11-05T20:36:29.968Z,90.93
2022-11-05T20:38:59.340Z,90.59
2022-11-05T20:41:27.261Z,90.74
2022-11-05T20:43:55.819Z,90.85
2022-11-05T20:46:23.958Z,90.80
2022-11-05T20:48:54.232Z,90.99
2022-11-05T20:51:24.344Z,90.84
2022-11-05T20:53:55.573Z,91.13
2022-11-05T20:56:25.129Z,91.05
2022-11-05T20:58:55.434Z,91.21
2022-11-05T21:01:23.434Z,90.78
2022-11-05T21:03:51.278Z,91.00
2022-11-05T21:06:20.898Z,90.84
2022-11-05T21:08:49.293Z,91.08
2022-11-05T21:11:17.819Z,90.83
2022-11-05T21:13:45.615Z,90.60
2022-11-05T21:16:18.012Z,90.70
2022-11-05T21:18:47.359Z,90.77
2022-11-05T21:21:17.251Z,91.15
2022-11-05T21:23:46.549Z,91.15
2022-11-05T21:26:16.682Z,91.07
2022-11-05T21:28:44.392Z,91.11
2022-11-05T21:31:12.117Z,91.27
2022-11-05T21:33:40.818Z,91.18
2022-11-05T21:36:10.367Z,91.38
2022-11-05T21:38:38.549Z,91.14
2022-11-05T21:41:08.466Z,91.59
2022-11-05T21:43:36.375Z,91.78
2022-11-05T21:46:05.375Z,91.09
2022-11-05T21:48:33.849Z,91.32
2022-11-05T21:51:19.129Z,91.64
2022-11-05T21:54:04.372Z,91.80
2022-11-05T21:56:52.819Z,91.67
2022-11-05T21:59:40.445Z,91.75
2022-11-05T22:02:11.040Z,91.76
2022-11-05T22:04:42.113Z,91.50
2022-11-05T22:07:12.149Z,91.73
2022-11-05T22:09:40.879Z,91.59
2022-11-05T22:12:11.171Z,91.90
2022-11-05T22:14:39.862Z,92.16
2022-11-05T22:17:08.230Z,91.71
2022-11-05T22:19:36.409Z,91.70
2022-11-05T22:22:05.805Z,91.25
2022-11-05T22:24:34.812Z,91.66
2022-11-05T22:27:05.032Z,91.27
2022-11-05T22:29:34.178Z,91.25
2022-11-05T22:32:01.810Z,90.89
2022-11-05T22:34:30.190Z,91.32
2022-11-05T22:36:58.747Z,91.04
2022-11-05T22:39:26.357Z,91.34
2022-11-05T22:41:55.593Z,91.19
2022-11-05T22:44:23.842Z,91.08
2022-11-05T22:46:53.784Z,90.91
2022-11-05T22:49:21.626Z,91.44
2022-11-05T22:51:49.256Z,91.19
2022-11-05T22:54:17.426Z,91.12
2022-11-05T22:56:45.033Z,91.26
2022-11-05T22:59:15.804Z,91.57
2022-11-05T23:01:45.223Z,91.16
2022-11-05T23:04:14.930Z,91.40
2022-11-05T23:07:00.780Z,91.25
2022-11-05T23:09:48.960Z,90.75
2022-11-05T23:12:22.952Z,91.14
2022-11-05T23:14:52.891Z,91.14
2022-11-05T23:17:38.350Z,91.12
2022-11-05T23:20:29.804Z,91.11
2022-11-05T23:23:16.434Z,90.91
2022-11-05T23:25:44.578Z,91.06
2022-11-05T23:28:37.749Z,91.03
2022-11-05T23:31:27.588Z,91.03
2022-11-05T23:33:55.157Z,90.82
2022-11-05T23:36:41.724Z,90.66
2022-11-05T23:39:09.315Z,91.06
2022-11-05T23:41:54.288Z,91.14
2022-11-05T23:44:39.666Z,90.75
2022-11-05T23:47:25.925Z,91.02
2022-11-05T23:49:54.823Z,91.07
2022-11-05T23:52:23.659Z,91.17
2022-11-05T23:54:51.791Z,91.36
2022-11-05T23:57:19.355Z,91.03
2022-11-05T23:59:46.928Z,91.08
